TimeCST,TemperatureF,Dew PointF,Humidity,Sea Level PressureIn,VisibilityMPH,Wind Direction,Wind SpeedMPH,Gust SpeedMPH,PrecipitationIn,Events,Conditions,WindDirDegrees,DateUTC
12:15 AM,48.2,33.8,58,29.97,10.0,SSE,5.8,-,N/A,,Partly Cloudy,150,2012-11-26 06:15:00
12:35 AM,46.4,35.6,66,29.97,10.0,SSE,5.8,-,N/A,,Partly Cloudy,150,2012-11-26 06:35:00
12:55 AM,48.2,35.6,62,29.97,10.0,SE,3.5,-,N/A,,Scattered Clouds,140,2012-11-26 06:55:00
1:15 AM,44.6,35.6,71,29.96,10.0,SE,4.6,-,N/A,,Scattered Clouds,140,2012-11-26 07:15:00
1:35 AM,44.6,35.6,71,29.96,10.0,SSE,4.6,-,N/A,,Scattered Clouds,150,2012-11-26 07:35:00
1:55 AM,44.6,35.6,71,29.96,10.0,SE,5.8,-,N/A,,Scattered Clouds,140,2012-11-26 07:55:00
2:15 AM,44.6,35.6,71,29.96,10.0,SE,5.8,-,N/A,,Mostly Cloudy,130,2012-11-26 08:15:00
2:35 AM,48.2,35.6,62,29.96,10.0,ESE,4.6,-,N/A,,Overcast,120,2012-11-26 08:35:00
2:55 AM,48.2,35.6,62,29.96,10.0,ESE,4.6,-,N/A,,Overcast,120,2012-11-26 08:55:00
3:15 AM,48.2,37.4,66,29.96,10.0,East,3.5,-,N/A,,Overcast,80,2012-11-26 09:15:00
3:35 AM,46.4,37.4,71,29.96,10.0,ESE,3.5,-,N/A,,Overcast,110,2012-11-26 09:35:00
3:55 AM,46.4,35.6,66,29.96,10.0,Calm,Calm,-,N/A,,Overcast,0,2012-11-26 09:55:00
4:15 AM,46.4,35.6,66,29.96,10.0,ESE,4.6,-,N/A,,Overcast,120,2012-11-26 10:15:00
4:35 AM,46.4,35.6,66,29.96,10.0,ESE,4.6,-,N/A,,Overcast,120,2012-11-26 10:35:00
4:55 AM,46.4,35.6,66,29.96,10.0,ESE,5.8,-,N/A,,Overcast,110,2012-11-26 10:55:00
5:15 AM,46.4,37.4,71,29.97,10.0,ESE,5.8,-,N/A,,Overcast,110,2012-11-26 11:15:00
5:35 AM,46.4,35.6,66,29.97,10.0,ESE,6.9,-,N/A,,Overcast,120,2012-11-26 11:35:00
6:47 AM,46.4,37.4,71,29.98,10.0,ESE,5.8,-,N/A,,Overcast,110,2012-11-26 12:47:00
7:55 AM,46.4,37.4,71,30.01,10.0,East,4.6,-,N/A,,Overcast,90,2012-11-26 13:55:00
8:48 AM,46.4,37.4,71,30.01,10.0,ESE,4.6,-,N/A,,Overcast,110,2012-11-26 14:48:00
9:47 AM,46.4,35.6,66,30.05,10.0,NE,8.1,-,N/A,,Overcast,40,2012-11-26 15:47:00
10:46 AM,46.4,35.6,66,30.06,10.0,NNE,4.6,-,N/A,,Overcast,30,2012-11-26 16:46:00
11:46 AM,46.4,35.6,66,30.06,10.0,NNE,3.5,-,N/A,,Overcast,20,2012-11-26 17:46:00
12:47 PM,46.4,35.6,66,30.05,10.0,NNE,6.9,-,N/A,,Overcast,30,2012-11-26 18:47:00
1:50 PM,44.6,35.6,71,30.07,7.0,NNE,8.1,-,N/A,Rain,Light Rain,30,2012-11-26 19:50:00
2:55 PM,41.0,33.8,76,30.10,10.0,NNE,12.7,-,N/A,,Overcast,20,2012-11-26 20:55:00
3:55 PM,41.0,32.0,70,30.14,10.0,North,12.7,20.7,N/A,,Overcast,10,2012-11-26 21:55:00
4:46 PM,41.0,32.0,70,30.18,10.0,North,13.8,21.9,N/A,,Overcast,10,2012-11-26 22:46:00
5:45 PM,41.0,32.0,70,30.22,10.0,NNE,10.4,16.1,N/A,,Overcast,30,2012-11-26 23:45:00
6:50 PM,39.2,26.6,61,30.26,10.0,NNE,8.1,16.1,N/A,,Overcast,20,2012-11-27 00:50:00
7:45 PM,37.4,28.4,70,30.29,10.0,NE,11.5,16.1,N/A,,Overcast,40,2012-11-27 01:45:00
8:15 PM,37.4,28.4,70,30.31,10.0,NE,10.4,16.1,N/A,,Overcast,40,2012-11-27 02:15:00
8:35 PM,37.4,28.4,70,30.31,10.0,NNE,5.8,-,N/A,,Overcast,30,2012-11-27 02:35:00
8:55 PM,37.4,28.4,70,30.32,10.0,NE,4.6,-,N/A,,Overcast,40,2012-11-27 02:55:00
9:15 PM,37.4,28.4,70,30.32,10.0,North,4.6,-,N/A,,Overcast,10,2012-11-27 03:15:00
9:35 PM,37.4,28.4,70,30.32,10.0,North,6.9,-,N/A,,Overcast,10,2012-11-27 03:35:00
9:55 PM,37.4,28.4,70,30.33,10.0,North,5.8,-,N/A,,Overcast,10,2012-11-27 03:55:00
10:15 PM,37.4,28.4,70,30.33,10.0,North,6.9,-,N/A,,Overcast,10,2012-11-27 04:15:00
10:35 PM,37.4,28.4,70,30.33,10.0,North,6.9,-,N/A,,Overcast,360,2012-11-27 04:35:00
10:55 PM,37.4,26.6,65,30.33,10.0,North,9.2,-,N/A,,Overcast,10,2012-11-27 04:55:00
11:15 PM,35.6,26.6,70,30.33,10.0,North,8.1,-,N/A,,Mostly Cloudy,360,2012-11-27 05:15:00
11:35 PM,35.6,26.6,70,30.34,10.0,North,9.2,-,N/A,,Partly Cloudy,360,2012-11-27 05:35:00
11:55 PM,33.8,26.6,75,30.35,10.0,North,6.9,-,N/A,,Scattered Clouds,350,2012-11-27 05:55:00